sensor_id;sensor_type;location;lat;lon;timestamp;pressure;altitude;pressure_sealevel;temperature;humidity
61697;BME280;47610;52.252;20.922;2023-03-16T00:04:46;100407.94;;;0.05;100.00
61697;BME280;47610;52.252;20.922;2023-03-16T00:09:49;100410.10;;;0.03;100.00
61697;BME280;47610;52.252;20.922;2023-03-16T00:14:53;100413.97;;;-0.01;100.00
61697;BME280;47610;52.252;20.922;2023-03-16T00:19:58;100415.73;;;-0.06;100.00
61697;BME280;47610;52.252;20.922;2023-03-16T00:25:01;100419.11;;;-0.09;100.00
61697;BME280;47610;52.252;20.922;2023-03-16T00:30:10;100426.73;;;-0.11;100.00
61697;BME280;47610;52.252;20.922;2023-03-16T00:35:13;100433.66;;;-0.13;100.00
61697;BME280;47610;52.252;20.922;2023-03-16T00:40:17;100435.77;;;-0.13;100.00
61697;BME280;47610;52.252;20.922;2023-03-16T00:45:20;100441.30;;;-0.12;100.00
61697;BME280;47610;52.252;20.922;2023-03-16T00:50:23;100444.08;;;-0.13;100.00
61697;BME280;47610;52.252;20.922;2023-03-16T00:55:26;100440.79;;;-0.15;100.00
61697;BME280;47610;52.252;20.922;2023-03-16T01:00:32;100438.14;;;-0.20;100.00
61697;BME280;47610;52.252;20.922;2023-03-16T01:05:40;100440.08;;;-0.26;100.00
61697;BME280;47610;52.252;20.922;2023-03-16T01:10:44;100442.56;;;-0.33;100.00
61697;BME280;47610;52.252;20.922;2023-03-16T01:15:47;100447.41;;;-0.38;100.00
61697;BME280;47610;52.252;20.922;2023-03-16T01:20:51;100446.69;;;-0.41;100.00
61697;BME280;47610;52.252;20.922;2023-03-16T01:25:55;100451.30;;;-0.44;100.00
61697;BME280;47610;52.252;20.922;2023-03-16T01:31:02;100452.34;;;-0.51;100.00
61697;BME280;47610;52.252;20.922;2023-03-16T01:36:09;100453.20;;;-0.57;100.00
61697;BME280;47610;52.252;20.922;2023-03-16T01:41:13;100460.61;;;-0.63;100.00
61697;BME280;47610;52.252;20.922;2023-03-16T01:46:20;100461.90;;;-0.70;100.00
61697;BME280;47610;52.252;20.922;2023-03-16T01:51:28;100466.72;;;-0.73;100.00
61697;BME280;47610;52.252;20.922;2023-03-16T01:56:37;100468.06;;;-0.76;100.00
61697;BME280;47610;52.252;20.922;2023-03-16T02:01:42;100468.95;;;-0.79;100.00
61697;BME280;47610;52.252;20.922;2023-03-16T02:06:47;100468.58;;;-0.81;100.00
61697;BME280;47610;52.252;20.922;2023-03-16T02:11:51;100467.12;;;-0.84;100.00
61697;BME280;47610;52.252;20.922;2023-03-16T02:16:55;100465.30;;;-0.88;100.00
61697;BME280;47610;52.252;20.922;2023-03-16T02:22:03;100473.01;;;-0.91;100.00
61697;BME280;47610;52.252;20.922;2023-03-16T02:27:09;100480.88;;;-0.92;100.00
61697;BME280;47610;52.252;20.922;2023-03-16T02:32:15;100477.67;;;-0.92;100.00
61697;BME280;47610;52.252;20.922;2023-03-16T02:37:19;100478.58;;;-0.92;100.00
61697;BME280;47610;52.252;20.922;2023-03-16T02:42:24;100483.42;;;-0.95;100.00
61697;BME280;47610;52.252;20.922;2023-03-16T02:47:34;100492.88;;;-0.99;100.00
61697;BME280;47610;52.252;20.922;2023-03-16T02:52:39;100498.41;;;-1.03;100.00
61697;BME280;47610;52.252;20.922;2023-03-16T02:57:42;100506.64;;;-1.08;100.00
61697;BME280;47610;52.252;20.922;2023-03-16T03:02:46;100511.85;;;-1.13;100.00
61697;BME280;47610;52.252;20.922;2023-03-16T03:07:49;100516.21;;;-1.17;100.00
61697;BME280;47610;52.252;20.922;2023-03-16T03:12:52;100521.19;;;-1.19;100.00
61697;BME280;47610;52.252;20.922;2023-03-16T03:17:56;100515.80;;;-1.21;100.00
61697;BME280;47610;52.252;20.922;2023-03-16T03:22:59;100523.38;;;-1.21;100.00
61697;BME280;47610;52.252;20.922;2023-03-16T03:28:03;100532.11;;;-1.20;100.00
61697;BME280;47610;52.252;20.922;2023-03-16T03:33:06;100533.70;;;-1.23;100.00
61697;BME280;47610;52.252;20.922;2023-03-16T03:38:10;100544.05;;;-1.19;100.00
61697;BME280;47610;52.252;20.922;2023-03-16T03:43:13;100545.11;;;-1.21;100.00
61697;BME280;47610;52.252;20.922;2023-03-16T03:48:16;100547.79;;;-1.23;100.00
61697;BME280;47610;52.252;20.922;2023-03-16T03:53:20;100559.52;;;-1.28;100.00
61697;BME280;47610;52.252;20.922;2023-03-16T03:58:24;100564.50;;;-1.33;100.00
61697;BME280;47610;52.252;20.922;2023-03-16T04:03:28;100570.57;;;-1.36;100.00
61697;BME280;47610;52.252;20.922;2023-03-16T04:08:31;100572.11;;;-1.36;100.00
61697;BME280;47610;52.252;20.922;2023-03-16T04:13:34;100573.16;;;-1.39;100.00
61697;BME280;47610;52.252;20.922;2023-03-16T04:18:38;100580.89;;;-1.42;100.00
61697;BME280;47610;52.252;20.922;2023-03-16T04:23:41;100586.29;;;-1.43;100.00
61697;BME280;47610;52.252;20.922;2023-03-16T04:28:44;100584.47;;;-1.46;100.00
61697;BME280;47610;52.252;20.922;2023-03-16T04:33:48;100583.05;;;-1.50;100.00
61697;BME280;47610;52.252;20.922;2023-03-16T04:38:53;100583.64;;;-1.54;100.00
61697;BME280;47610;52.252;20.922;2023-03-16T04:43:58;100588.60;;;-1.56;100.00
61697;BME280;47610;52.252;20.922;2023-03-16T04:49:02;100593.08;;;-1.57;100.00
61697;BME280;47610;52.252;20.922;2023-03-16T04:54:05;100600.30;;;-1.57;100.00
61697;BME280;47610;52.252;20.922;2023-03-16T04:59:08;100604.15;;;-1.55;100.00
61697;BME280;47610;52.252;20.922;2023-03-16T05:04:12;100611.38;;;-1.51;100.00
61697;BME280;47610;52.252;20.922;2023-03-16T05:09:15;100621.17;;;-1.44;100.00
61697;BME280;47610;52.252;20.922;2023-03-16T05:14:18;100618.11;;;-1.35;100.00
61697;BME280;47610;52.252;20.922;2023-03-16T05:19:21;100617.91;;;-1.22;100.00
61697;BME280;47610;52.252;20.922;2023-03-16T05:24:24;100622.42;;;-1.07;100.00
61697;BME280;47610;52.252;20.922;2023-03-16T05:29:28;100630.52;;;-0.89;100.00
61697;BME280;47610;52.252;20.922;2023-03-16T05:34:31;100625.10;;;-0.70;100.00
61697;BME280;47610;52.252;20.922;2023-03-16T05:39:34;100628.42;;;-0.49;100.00
61697;BME280;47610;52.252;20.922;2023-03-16T05:44:38;100633.05;;;-0.29;100.00
61697;BME280;47610;52.252;20.922;2023-03-16T05:49:41;100634.98;;;-0.06;100.00
61697;BME280;47610;52.252;20.922;2023-03-16T05:54:45;100632.84;;;0.13;100.00
61697;BME280;47610;52.252;20.922;2023-03-16T05:59:48;100638.83;;;0.28;100.00
61697;BME280;47610;52.252;20.922;2023-03-16T06:04:51;100637.66;;;0.41;100.00
61697;BME280;47610;52.252;20.922;2023-03-16T06:09:54;100649.14;;;0.56;100.00
61697;BME280;47610;52.252;20.922;2023-03-16T06:14:58;100653.48;;;0.73;100.00
61697;BME280;47610;52.252;20.922;2023-03-16T06:20:04;100652.73;;;0.96;100.00
61697;BME280;47610;52.252;20.922;2023-03-16T06:25:10;100661.38;;;1.99;100.00
61697;BME280;47610;52.252;20.922;2023-03-16T06:30:14;100659.16;;;6.11;100.00
61697;BME280;47610;52.252;20.922;2023-03-16T06:35:19;100669.85;;;10.38;100.00
61697;BME280;47610;52.252;20.922;2023-03-16T06:40:22;100669.45;;;13.54;100.00
61697;BME280;47610;52.252;20.922;2023-03-16T06:45:25;100679.14;;;15.67;96.72
61697;BME280;47610;52.252;20.922;2023-03-16T06:50:29;100677.92;;;15.41;81.37
61697;BME280;47610;52.252;20.922;2023-03-16T06:55:32;100682.59;;;15.03;74.11
61697;BME280;47610;52.252;20.922;2023-03-16T07:00:35;100686.56;;;13.42;71.55
61697;BME280;47610;52.252;20.922;2023-03-16T07:05:39;100695.38;;;13.74;72.72
61697;BME280;47610;52.252;20.922;2023-03-16T07:10:42;100707.80;;;16.74;67.10
61697;BME280;47610;52.252;20.922;2023-03-16T07:15:45;100715.10;;;20.32;55.90
61697;BME280;47610;52.252;20.922;2023-03-16T07:20:53;100723.48;;;22.25;46.26
61697;BME280;47610;52.252;20.922;2023-03-16T07:25:59;100726.91;;;24.10;39.64
61697;BME280;47610;52.252;20.922;2023-03-16T07:31:02;100726.98;;;26.14;33.18
61697;BME280;47610;52.252;20.922;2023-03-16T07:36:09;100731.05;;;28.77;29.18
61697;BME280;47610;52.252;20.922;2023-03-16T07:41:12;100738.80;;;31.14;25.93
61697;BME280;47610;52.252;20.922;2023-03-16T07:46:15;100736.86;;;32.55;22.73
61697;BME280;47610;52.252;20.922;2023-03-16T07:51:19;100741.73;;;32.99;21.20
61697;BME280;47610;52.252;20.922;2023-03-16T07:56:22;100746.10;;;32.55;20.40
61697;BME280;47610;52.252;20.922;2023-03-16T08:01:25;100743.80;;;29.84;20.80
61697;BME280;47610;52.252;20.922;2023-03-16T08:06:28;100739.59;;;29.71;21.05
61697;BME280;47610;52.252;20.922;2023-03-16T08:11:32;100734.53;;;29.77;20.81
61697;BME280;47610;52.252;20.922;2023-03-16T08:16:36;100733.11;;;29.29;20.68
61697;BME280;47610;52.252;20.922;2023-03-16T08:21:39;100738.68;;;30.37;20.62
61697;BME280;47610;52.252;20.922;2023-03-16T08:26:42;100743.64;;;31.69;19.42
61697;BME280;47610;52.252;20.922;2023-03-16T08:31:46;100746.27;;;32.57;18.72
61697;BME280;47610;52.252;20.922;2023-03-16T08:36:49;100747.43;;;34.06;17.89
61697;BME280;47610;52.252;20.922;2023-03-16T08:41:52;100752.52;;;34.51;17.10
61697;BME280;47610;52.252;20.922;2023-03-16T08:46:55;100755.84;;;35.23;16.75
61697;BME280;47610;52.252;20.922;2023-03-16T08:51:59;100762.71;;;36.69;15.77
61697;BME280;47610;52.252;20.922;2023-03-16T08:57:02;100767.05;;;37.56;15.04
61697;BME280;47610;52.252;20.922;2023-03-16T09:02:06;100776.11;;;38.26;14.28
61697;BME280;47610;52.252;20.922;2023-03-16T09:07:11;100775.00;;;38.99;14.07
61697;BME280;47610;52.252;20.922;2023-03-16T09:12:14;100778.23;;;39.62;13.62
61697;BME280;47610;52.252;20.922;2023-03-16T09:17:17;100780.33;;;40.25;13.15
61697;BME280;47610;52.252;20.922;2023-03-16T09:22:21;100771.36;;;40.53;12.66
61697;BME280;47610;52.252;20.922;2023-03-16T09:27:25;100772.06;;;40.87;12.15
61697;BME280;47610;52.252;20.922;2023-03-16T09:32:28;100767.38;;;40.77;11.84
61697;BME280;47610;52.252;20.922;2023-03-16T09:37:31;100768.30;;;40.48;11.55
61697;BME280;47610;52.252;20.922;2023-03-16T09:42:39;100765.85;;;40.37;11.72
61697;BME280;47610;52.252;20.922;2023-03-16T09:47:50;100758.74;;;40.50;11.72
61697;BME280;47610;52.252;20.922;2023-03-16T09:52:59;100761.04;;;40.73;11.45
61697;BME280;47610;52.252;20.922;2023-03-16T09:58:06;100766.64;;;40.60;10.82
61697;BME280;47610;52.252;20.922;2023-03-16T10:03:19;100768.78;;;40.21;11.09
61697;BME280;47610;52.252;20.922;2023-03-16T10:08:31;100769.75;;;39.87;11.44
61697;BME280;47610;52.252;20.922;2023-03-16T10:13:45;100766.55;;;39.71;11.11
61697;BME280;47610;52.252;20.922;2023-03-16T10:19:01;100758.21;;;38.53;11.11
61697;BME280;47610;52.252;20.922;2023-03-16T10:24:05;100754.00;;;35.41;11.96
61697;BME280;47610;52.252;20.922;2023-03-16T10:29:15;100757.16;;;33.25;12.86
61697;BME280;47610;52.252;20.922;2023-03-16T10:34:20;100757.79;;;33.25;13.04
61697;BME280;47610;52.252;20.922;2023-03-16T10:39:23;100751.80;;;33.02;13.71
61697;BME280;47610;52.252;20.922;2023-03-16T10:44:27;100752.54;;;33.70;13.77
61697;BME280;47610;52.252;20.922;2023-03-16T10:49:37;100746.48;;;32.80;13.92
61697;BME280;47610;52.252;20.922;2023-03-16T10:54:45;100746.41;;;29.45;15.31
61697;BME280;47610;52.252;20.922;2023-03-16T10:59:51;100735.73;;;25.32;17.40
61697;BME280;47610;52.252;20.922;2023-03-16T11:04:54;100733.85;;;22.17;20.60
61697;BME280;47610;52.252;20.922;2023-03-16T11:09:58;100730.45;;;20.17;23.23
61697;BME280;47610;52.252;20.922;2023-03-16T11:15:04;100723.18;;;18.92;25.31
61697;BME280;47610;52.252;20.922;2023-03-16T11:20:16;100726.73;;;17.87;27.81
61697;BME280;47610;52.252;20.922;2023-03-16T11:25:25;100726.64;;;16.68;30.19
61697;BME280;47610;52.252;20.922;2023-03-16T11:30:34;100728.52;;;15.41;32.98
61697;BME280;47610;52.252;20.922;2023-03-16T11:35:46;100730.04;;;14.14;36.62
61697;BME280;47610;52.252;20.922;2023-03-16T11:40:56;100731.92;;;12.77;40.08
61697;BME280;47610;52.252;20.922;2023-03-16T11:46:10;100728.80;;;11.64;44.68
61697;BME280;47610;52.252;20.922;2023-03-16T11:51:26;100730.13;;;10.80;51.19
61697;BME280;47610;52.252;20.922;2023-03-16T11:56:37;100728.05;;;10.13;57.34
61697;BME280;47610;52.252;20.922;2023-03-16T12:01:50;100731.54;;;9.61;61.22
61697;BME280;47610;52.252;20.922;2023-03-16T12:07:08;100732.74;;;9.44;64.56
61697;BME280;47610;52.252;20.922;2023-03-16T12:12:23;100739.77;;;9.33;65.42
61697;BME280;47610;52.252;20.922;2023-03-16T12:17:32;100735.67;;;9.24;63.65
61697;BME280;47610;52.252;20.922;2023-03-16T12:22:42;100744.70;;;9.17;64.10
61697;BME280;47610;52.252;20.922;2023-03-16T12:27:48;100745.89;;;8.96;66.90
61697;BME280;47610;52.252;20.922;2023-03-16T12:32:56;100742.67;;;8.70;69.74
61697;BME280;47610;52.252;20.922;2023-03-16T12:38:18;100750.65;;;8.53;71.11
61697;BME280;47610;52.252;20.922;2023-03-16T12:43:40;100751.65;;;8.46;70.48
61697;BME280;47610;52.252;20.922;2023-03-16T12:48:48;100757.40;;;8.45;73.01
61697;BME280;47610;52.252;20.922;2023-03-16T12:53:55;100758.61;;;8.32;74.49
61697;BME280;47610;52.252;20.922;2023-03-16T12:59:00;100756.86;;;8.11;75.37
61697;BME280;47610;52.252;20.922;2023-03-16T13:04:10;100758.05;;;8.00;77.16
61697;BME280;47610;52.252;20.922;2023-03-16T13:09:19;100761.65;;;8.06;78.24
61697;BME280;47610;52.252;20.922;2023-03-16T13:14:37;100760.60;;;8.16;77.47
61697;BME280;47610;52.252;20.922;2023-03-16T13:19:43;100755.48;;;8.15;72.39
61697;BME280;47610;52.252;20.922;2023-03-16T13:24:52;100756.64;;;8.15;69.51
61697;BME280;47610;52.252;20.922;2023-03-16T13:29:58;100755.40;;;8.31;69.42
61697;BME280;47610;52.252;20.922;2023-03-16T13:35:03;100755.01;;;8.67;66.69
61697;BME280;47610;52.252;20.922;2023-03-16T13:40:20;100752.25;;;8.95;62.98
61697;BME280;47610;52.252;20.922;2023-03-16T13:45:30;100755.63;;;9.07;61.24
61697;BME280;47610;52.252;20.922;2023-03-16T13:50:35;100763.81;;;9.07;62.16
61697;BME280;47610;52.252;20.922;2023-03-16T13:55:42;100764.55;;;8.92;62.96
61697;BME280;47610;52.252;20.922;2023-03-16T14:00:46;100765.64;;;8.77;63.86
61697;BME280;47610;52.252;20.922;2023-03-16T14:05:50;100766.96;;;8.61;64.26
61697;BME280;47610;52.252;20.922;2023-03-16T14:10:54;100766.64;;;8.43;64.08
61697;BME280;47610;52.252;20.922;2023-03-16T14:16:01;100769.53;;;8.29;64.73
61697;BME280;47610;52.252;20.922;2023-03-16T14:21:08;100773.77;;;8.09;63.06
61697;BME280;47610;52.252;20.922;2023-03-16T14:26:14;100772.38;;;7.84;63.28
61697;BME280;47610;52.252;20.922;2023-03-16T14:31:19;100773.95;;;7.64;64.20
61697;BME280;47610;52.252;20.922;2023-03-16T14:36:35;100774.66;;;7.52;65.84
61697;BME280;47610;52.252;20.922;2023-03-16T14:41:41;100775.83;;;7.44;67.77
61697;BME280;47610;52.252;20.922;2023-03-16T14:46:45;100775.33;;;7.35;68.56
61697;BME280;47610;52.252;20.922;2023-03-16T14:51:51;100773.52;;;7.24;68.61
61697;BME280;47610;52.252;20.922;2023-03-16T14:57:01;100772.25;;;7.12;71.15
61697;BME280;47610;52.252;20.922;2023-03-16T15:02:08;100780.23;;;7.08;74.59
61697;BME280;47610;52.252;20.922;2023-03-16T15:07:22;100788.04;;;7.13;74.59
61697;BME280;47610;52.252;20.922;2023-03-16T15:12:26;100794.45;;;7.30;72.92
61697;BME280;47610;52.252;20.922;2023-03-16T15:17:31;100790.61;;;7.44;71.79
61697;BME280;47610;52.252;20.922;2023-03-16T15:22:38;100795.85;;;7.43;71.16
61697;BME280;47610;52.252;20.922;2023-03-16T15:27:42;100799.61;;;7.39;71.72
61697;BME280;47610;52.252;20.922;2023-03-16T15:32:47;100794.60;;;7.35;72.73
61697;BME280;47610;52.252;20.922;2023-03-16T15:37:51;100795.49;;;7.28;72.66
61697;BME280;47610;52.252;20.922;2023-03-16T15:42:54;100794.98;;;7.13;73.24
61697;BME280;47610;52.252;20.922;2023-03-16T15:47:58;100804.07;;;6.97;73.95
61697;BME280;47610;52.252;20.922;2023-03-16T15:53:03;100810.48;;;6.85;76.19
61697;BME280;47610;52.252;20.922;2023-03-16T15:58:12;100814.09;;;6.80;78.34
61697;BME280;47610;52.252;20.922;2023-03-16T16:03:17;100818.58;;;6.69;80.61
61697;BME280;47610;52.252;20.922;2023-03-16T16:08:21;100818.66;;;6.54;83.01
61697;BME280;47610;52.252;20.922;2023-03-16T16:13:29;100830.20;;;6.42;86.07
61697;BME280;47610;52.252;20.922;2023-03-16T16:18:33;100824.10;;;6.16;89.77
61697;BME280;47610;52.252;20.922;2023-03-16T16:23:35;100838.08;;;5.96;92.91
61697;BME280;47610;52.252;20.922;2023-03-16T16:28:38;100846.35;;;5.73;95.16
61697;BME280;47610;52.252;20.922;2023-03-16T16:33:43;100852.39;;;5.46;97.66
61697;BME280;47610;52.252;20.922;2023-03-16T16:38:46;100855.80;;;5.18;99.71
61697;BME280;47610;52.252;20.922;2023-03-16T16:43:52;100862.61;;;4.90;100.00
61697;BME280;47610;52.252;20.922;2023-03-16T16:49:00;100868.52;;;4.64;100.00
61697;BME280;47610;52.252;20.922;2023-03-16T16:54:14;100874.23;;;4.38;100.00
61697;BME280;47610;52.252;20.922;2023-03-16T16:59:18;100875.65;;;4.18;100.00
61697;BME280;47610;52.252;20.922;2023-03-16T17:04:24;100873.12;;;3.98;100.00
61697;BME280;47610;52.252;20.922;2023-03-16T17:09:29;100883.75;;;3.87;100.00
61697;BME280;47610;52.252;20.922;2023-03-16T17:14:32;100889.69;;;3.75;100.00
61697;BME280;47610;52.252;20.922;2023-03-16T17:19:35;100887.20;;;3.62;100.00
61697;BME280;47610;52.252;20.922;2023-03-16T17:24:38;100887.00;;;3.52;100.00
61697;BME280;47610;52.252;20.922;2023-03-16T17:29:42;100891.81;;;3.42;100.00
61697;BME280;47610;52.252;20.922;2023-03-16T17:34:45;100899.65;;;3.34;100.00
61697;BME280;47610;52.252;20.922;2023-03-16T17:39:48;100902.48;;;3.28;100.00
61697;BME280;47610;52.252;20.922;2023-03-16T17:44:52;100911.91;;;3.23;100.00
61697;BME280;47610;52.252;20.922;2023-03-16T17:49:55;100916.19;;;3.18;100.00
61697;BME280;47610;52.252;20.922;2023-03-16T17:54:58;100917.12;;;3.13;100.00
61697;BME280;47610;52.252;20.922;2023-03-16T18:00:05;100919.61;;;3.06;100.00
61697;BME280;47610;52.252;20.922;2023-03-16T18:05:16;100918.20;;;3.01;100.00
61697;BME280;47610;52.252;20.922;2023-03-16T18:10:23;100920.84;;;2.96;100.00
61697;BME280;47610;52.252;20.922;2023-03-16T18:15:29;100928.63;;;2.95;100.00
61697;BME280;47610;52.252;20.922;2023-03-16T18:20:34;100932.82;;;2.99;100.00
61697;BME280;47610;52.252;20.922;2023-03-16T18:25:38;100937.98;;;3.10;100.00
61697;BME280;47610;52.252;20.922;2023-03-16T18:30:43;100948.79;;;3.20;100.00
61697;BME280;47610;52.252;20.922;2023-03-16T18:35:46;100948.61;;;3.24;100.00
61697;BME280;47610;52.252;20.922;2023-03-16T18:40:50;100949.88;;;3.22;100.00
61697;BME280;47610;52.252;20.922;2023-03-16T18:45:54;100953.02;;;3.14;100.00
61697;BME280;47610;52.252;20.922;2023-03-16T18:50:58;100956.08;;;3.00;100.00
61697;BME280;47610;52.252;20.922;2023-03-16T18:56:02;100954.67;;;2.84;100.00
61697;BME280;47610;52.252;20.922;2023-03-16T19:01:07;100959.33;;;2.73;100.00
61697;BME280;47610;52.252;20.922;2023-03-16T19:06:17;100964.42;;;2.64;100.00
61697;BME280;47610;52.252;20.922;2023-03-16T19:11:21;100962.58;;;2.58;100.00
61697;BME280;47610;52.252;20.922;2023-03-16T19:16:25;100963.71;;;2.54;100.00
61697;BME280;47610;52.252;20.922;2023-03-16T19:21:28;100966.22;;;2.47;100.00
61697;BME280;47610;52.252;20.922;2023-03-16T19:26:33;100976.58;;;2.43;100.00
61697;BME280;47610;52.252;20.922;2023-03-16T19:31:37;100983.15;;;2.45;100.00
61697;BME280;47610;52.252;20.922;2023-03-16T19:36:40;100993.59;;;2.52;100.00
61697;BME280;47610;52.252;20.922;2023-03-16T19:41:45;101000.77;;;2.62;100.00
61697;BME280;47610;52.252;20.922;2023-03-16T19:46:50;101002.36;;;2.77;100.00
61697;BME280;47610;52.252;20.922;2023-03-16T19:51:54;101001.60;;;2.93;100.00
61697;BME280;47610;52.252;20.922;2023-03-16T19:57:00;101004.59;;;3.07;100.00
61697;BME280;47610;52.252;20.922;2023-03-16T20:02:31;101003.17;;;3.17;100.00
61697;BME280;47610;52.252;20.922;2023-03-16T20:07:38;101005.40;;;3.32;100.00
61697;BME280;47610;52.252;20.922;2023-03-16T20:12:43;101011.11;;;3.40;100.00
61697;BME280;47610;52.252;20.922;2023-03-16T20:17:49;101007.16;;;3.48;100.00
61697;BME280;47610;52.252;20.922;2023-03-16T20:22:53;101013.00;;;3.59;100.00
61697;BME280;47610;52.252;20.922;2023-03-16T20:27:59;101017.08;;;3.64;100.00
61697;BME280;47610;52.252;20.922;2023-03-16T20:33:03;101011.83;;;3.69;100.00
61697;BME280;47610;52.252;20.922;2023-03-16T20:38:11;101012.83;;;3.74;100.00
61697;BME280;47610;52.252;20.922;2023-03-16T20:43:23;101012.84;;;3.78;100.00
61697;BME280;47610;52.252;20.922;2023-03-16T20:48:27;101013.08;;;3.85;100.00
61697;BME280;47610;52.252;20.922;2023-03-16T20:53:30;101016.15;;;3.91;100.00
61697;BME280;47610;52.252;20.922;2023-03-16T20:58:34;101014.71;;;3.93;100.00
61697;BME280;47610;52.252;20.922;2023-03-16T21:03:37;101019.83;;;3.92;100.00
61697;BME280;47610;52.252;20.922;2023-03-16T21:08:40;101021.20;;;3.84;100.00
61697;BME280;47610;52.252;20.922;2023-03-16T21:13:44;101021.17;;;3.70;100.00
61697;BME280;47610;52.252;20.922;2023-03-16T21:18:47;101021.30;;;3.54;100.00
61697;BME280;47610;52.252;20.922;2023-03-16T21:23:51;101025.20;;;3.38;100.00
61697;BME280;47610;52.252;20.922;2023-03-16T21:28:58;101024.55;;;3.19;100.00
61697;BME280;47610;52.252;20.922;2023-03-16T21:34:02;101022.27;;;2.96;100.00
61697;BME280;47610;52.252;20.922;2023-03-16T21:39:17;101027.23;;;2.81;100.00
61697;BME280;47610;52.252;20.922;2023-03-16T21:44:20;101026.09;;;2.62;100.00
61697;BME280;47610;52.252;20.922;2023-03-16T21:49:25;101028.55;;;2.51;100.00
61697;BME280;47610;52.252;20.922;2023-03-16T21:54:28;101030.01;;;2.42;100.00
61697;BME280;47610;52.252;20.922;2023-03-16T21:59:32;101025.14;;;2.32;100.00
61697;BME280;47610;52.252;20.922;2023-03-16T22:04:35;101025.81;;;2.24;100.00
61697;BME280;47610;52.252;20.922;2023-03-16T22:09:38;101023.42;;;2.15;100.00
61697;BME280;47610;52.252;20.922;2023-03-16T22:14:42;101027.95;;;2.07;100.00
61697;BME280;47610;52.252;20.922;2023-03-16T22:19:45;101035.77;;;1.98;100.00
61697;BME280;47610;52.252;20.922;2023-03-16T22:24:48;101040.83;;;1.90;100.00
61697;BME280;47610;52.252;20.922;2023-03-16T22:29:52;101041.67;;;1.82;100.00
61697;BME280;47610;52.252;20.922;2023-03-16T22:34:57;101041.23;;;1.76;100.00
61697;BME280;47610;52.252;20.922;2023-03-16T22:40:01;101032.80;;;1.68;100.00
61697;BME280;47610;52.252;20.922;2023-03-16T22:45:16;101034.70;;;1.62;100.00
61697;BME280;47610;52.252;20.922;2023-03-16T22:50:20;101035.66;;;1.56;100.00
61697;BME280;47610;52.252;20.922;2023-03-16T22:55:26;101039.98;;;1.52;100.00
61697;BME280;47610;52.252;20.922;2023-03-16T23:00:30;101043.17;;;1.48;100.00
61697;BME280;47610;52.252;20.922;2023-03-16T23:05:33;101048.09;;;1.43;100.00
61697;BME280;47610;52.252;20.922;2023-03-16T23:10:36;101046.52;;;1.36;100.00
61697;BME280;47610;52.252;20.922;2023-03-16T23:15:39;101050.45;;;1.32;100.00
61697;BME280;47610;52.252;20.922;2023-03-16T23:20:46;101053.32;;;1.25;100.00
61697;BME280;47610;52.252;20.922;2023-03-16T23:25:50;101055.20;;;1.20;100.00
61697;BME280;47610;52.252;20.922;2023-03-16T23:30:55;101059.41;;;1.14;100.00
61697;BME280;47610;52.252;20.922;2023-03-16T23:35:58;101063.52;;;1.05;100.00
61697;BME280;47610;52.252;20.922;2023-03-16T23:41:01;101069.79;;;1.00;100.00
61697;BME280;47610;52.252;20.922;2023-03-16T23:46:06;101072.23;;;0.93;100.00
61697;BME280;47610;52.252;20.922;2023-03-16T23:51:16;101078.06;;;0.89;100.00
61697;BME280;47610;52.252;20.922;2023-03-16T23:56:21;101074.92;;;0.86;100.00
